Time;durP1;ratioP1;P1;durP2;ratioP2;P2;SDS_P1;SDS_P2;PMS_P1;PMS_P2;Temp;Humidity;BMP_temperature;BMP_pressure;BME280_temperature;BME280_humidity;BME280_pressure;Samples;Min_cycle;Max_cycle;Signal;HPM_P1;HPM_P2
2022/06/18 00:00:41;;;;;;;1.93;1.63;;;;;;;11.90;80.52;98481.31;6281548;28;20226;-44
2022/06/18 00:03:44;;;;;;;2.50;2.03;;;;;;;11.83;81.37;98472.97;6281747;28;20324;-45
2022/06/18 00:06:56;;;;;;;1.73;1.63;;;;;;;11.75;81.42;98467.41;6281738;28;20237;-45
2022/06/18 00:10:04;;;;;;;1.60;1.37;;;;;;;11.68;81.72;98471.44;6281440;28;20237;-45
2022/06/18 00:16:37;;;;;;;2.90;1.80;;;;;;;11.67;81.82;98475.03;6285822;28;20573;-45
2022/06/18 00:19:39;;;;;;;2.60;1.70;;;;;;;11.63;81.94;98478.84;6282156;28;20316;-45
2022/06/18 00:22:44;;;;;;;1.87;1.67;;;;;;;11.69;81.70;98475.75;6244533;28;20241;-45
2022/06/18 00:25:50;;;;;;;1.70;1.60;;;;;;;11.68;81.51;98476.72;6259433;28;20238;-44
2022/06/18 00:28:52;;;;;;;2.20;2.07;;;;;;;11.70;81.91;98478.28;6281106;28;20278;-45
2022/06/18 00:31:54;;;;;;;2.00;1.90;;;;;;;11.66;81.86;98474.19;6262948;28;20234;-46
2022/06/18 00:34:56;;;;;;;1.93;1.73;;;;;;;11.68;81.86;98468.78;6250771;28;20242;-44
2022/06/18 00:38:04;;;;;;;2.97;1.63;;;;;;;11.73;82.07;98462.19;6273957;28;20322;-45
2022/06/18 00:41:07;;;;;;;2.10;1.90;;;;;;;11.81;81.82;98461.66;6280131;28;20231;-44
2022/06/18 00:44:32;;;;;;;2.90;2.30;;;;;;;11.85;81.58;98459.66;6280916;28;20724;-44
2022/06/18 00:47:45;;;;;;;3.97;2.17;;;;;;;11.87;82.07;98460.38;6280270;28;20247;-45
2022/06/18 00:50:52;;;;;;;2.37;2.17;;;;;;;11.85;82.25;98457.00;6280268;28;20227;-45
2022/06/18 00:54:06;;;;;;;1.80;1.70;;;;;;;11.79;81.94;98456.47;6279540;28;20387;-45
2022/06/18 00:57:35;;;;;;;2.13;1.97;;;;;;;11.76;82.48;98448.78;6262576;28;20236;-45
2022/06/18 01:05:23;;;;;;;1.90;1.80;;;;;;;11.65;82.24;98450.50;6279538;28;20226;-45
2022/06/18 01:08:29;;;;;;;1.77;1.67;;;;;;;11.59;82.78;98451.75;6280096;28;20247;-45
2022/06/18 01:11:35;;;;;;;2.07;1.97;;;;;;;11.59;82.67;98448.28;6262205;28;20242;-46
2022/06/18 01:14:39;;;;;;;2.10;1.90;;;;;;;11.59;82.58;98446.47;6279313;28;20279;-45
2022/06/18 01:17:42;;;;;;;2.17;1.90;;;;;;;11.55;82.69;98450.31;6262037;28;20236;-45
2022/06/18 01:20:51;;;;;;;2.20;2.00;;;;;;;11.50;83.13;98451.56;6275672;28;20240;-44
2022/06/18 01:24:19;;;;;;;2.30;1.80;;;;;;;11.48;83.18;98446.41;6261631;28;20238;-44
2022/06/18 01:27:22;;;;;;;1.80;1.70;;;;;;;11.46;83.30;98443.88;6260513;28;20630;-44
2022/06/18 01:30:33;;;;;;;2.17;1.97;;;;;;;11.47;83.23;98444.72;6260996;28;20249;-45
2022/06/18 01:33:37;;;;;;;2.10;1.90;;;;;;;11.44;83.16;98444.94;6260534;28;20264;-44
2022/06/18 01:36:40;;;;;;;2.87;2.03;;;;;;;11.40;83.60;98444.31;6261959;28;20303;-45
2022/06/18 01:39:47;;;;;;;2.33;2.13;;;;;;;11.37;83.62;98441.06;6261385;28;20253;-47
2022/06/18 01:42:50;;;;;;;2.00;1.90;;;;;;;11.35;83.67;98441.16;6260823;28;20246;-45
2022/06/18 01:46:00;;;;;;;1.60;1.50;;;;;;;11.31;83.58;98436.19;6260787;28;20237;-45
2022/06/18 01:49:12;;;;;;;2.40;2.20;;;;;;;11.28;83.63;98436.44;6261177;28;20233;-45
2022/06/18 01:52:18;;;;;;;4.33;2.30;;;;;;;11.23;83.76;98431.47;6262017;28;20241;-45
2022/06/18 01:55:27;;;;;;;2.13;1.87;;;;;;;11.22;83.73;98426.28;6260474;28;20234;-45
2022/06/18 01:59:09;;;;;;;2.13;1.93;;;;;;;11.22;83.46;98426.28;6260812;28;20244;-45
2022/06/18 02:02:16;;;;;;;2.57;2.17;;;;;;;11.19;84.00;98429.97;6153896;28;20274;-46
2022/06/18 02:05:21;;;;;;;1.83;1.73;;;;;;;11.15;83.69;98425.03;6138085;28;20227;-44
2022/06/18 02:08:23;;;;;;;2.60;2.10;;;;;;;11.08;83.57;98414.03;6153538;28;20235;-45
2022/06/18 02:11:26;;;;;;;3.27;2.13;;;;;;;11.02;84.04;98417.97;6154488;28;20327;-45
2022/06/18 02:14:30;;;;;;;1.80;1.70;;;;;;;11.04;84.51;98423.16;6138017;28;20340;-45
2022/06/18 02:17:33;;;;;;;3.53;1.90;;;;;;;11.06;84.29;98426.53;6139168;28;20260;-45
2022/06/18 02:20:49;;;;;;;2.07;1.87;;;;;;;11.02;84.17;98417.97;6121404;28;20316;-45
2022/06/18 02:23:53;;;;;;;1.90;1.80;;;;;;;10.96;83.92;98422.84;6129993;29;20237;-44
2022/06/18 02:26:55;;;;;;;1.93;1.73;;;;;;;10.91;84.30;98417.88;6135524;28;20242;-45
2022/06/18 02:29:59;;;;;;;2.03;1.93;;;;;;;10.91;84.28;98422.31;6153738;28;20587;-45
2022/06/18 02:33:21;;;;;;;2.70;1.73;;;;;;;10.90;84.48;98418.81;6152910;28;20770;-44
2022/06/18 02:36:30;;;;;;;1.70;1.60;;;;;;;10.89;84.66;98424.19;6131068;28;20241;-45
2022/06/18 02:39:40;;;;;;;3.07;1.90;;;;;;;10.85;84.74;98413.03;6236755;28;20760;-45
2022/06/18 02:42:42;;;;;;;1.77;1.67;;;;;;;10.86;84.78;98414.72;6253001;28;20238;-46
2022/06/18 02:45:49;;;;;;;2.17;1.70;;;;;;;10.88;84.50;98411.97;6252330;28;20323;-45
2022/06/18 02:48:52;;;;;;;2.03;1.83;;;;;;;10.90;84.11;98410.91;6236149;28;20315;-44
2022/06/18 02:51:54;;;;;;;2.20;2.00;;;;;;;10.89;84.28;98401.28;6252992;28;20234;-45
2022/06/18 02:55:08;;;;;;;1.97;1.73;;;;;;;10.92;84.69;98411.63;6236078;28;20249;-45
2022/06/18 02:58:26;;;;;;;1.90;1.80;;;;;;;10.95;84.46;98402.66;6253444;28;20367;-44
2022/06/18 03:01:29;;;;;;;2.80;1.90;;;;;;;10.97;84.50;98406.91;6254572;28;20253;-45
2022/06/18 03:04:31;;;;;;;2.10;1.90;;;;;;;10.98;84.50;98405.91;6253411;28;20283;-45
2022/06/18 03:07:33;;;;;;;2.63;1.67;;;;;;;11.04;84.61;98404.66;6235561;28;20783;-44
2022/06/18 03:13:59;;;;;;;2.17;1.80;;;;;;;11.12;84.73;98404.94;6235049;28;20241;-44
2022/06/18 03:17:04;;;;;;;2.73;1.90;;;;;;;11.15;84.52;98409.19;6235562;28;20237;-44
2022/06/18 03:20:13;;;;;;;2.03;1.93;;;;;;;11.15;85.26;98411.81;6235484;28;20337;-45
2022/06/18 03:23:18;;;;;;;2.47;1.90;;;;;;;11.14;85.13;98418.06;6203071;28;20235;-45
2022/06/18 03:26:21;;;;;;;3.43;2.10;;;;;;;11.16;85.12;98417.00;6224988;28;20323;-44
2022/06/18 03:29:27;;;;;;;2.40;2.20;;;;;;;11.17;85.04;98417.84;6252163;28;20717;-45
2022/06/18 03:32:29;;;;;;;2.33;2.00;;;;;;;11.19;85.16;98415.91;6234146;28;20731;-45
2022/06/18 03:35:31;;;;;;;1.97;1.77;;;;;;;11.22;85.31;98418.34;6252100;28;20229;-45
2022/06/18 03:38:34;;;;;;;3.83;1.87;;;;;;;11.23;85.23;98412.97;6258446;28;20229;-44
2022/06/18 03:41:36;;;;;;;2.10;1.80;;;;;;;11.26;85.08;98415.41;6259649;28;20232;-44
2022/06/18 03:44:39;;;;;;;3.10;1.90;;;;;;;11.26;85.16;98410.13;6258475;28;20255;-44
2022/06/18 03:47:41;;;;;;;2.97;1.97;;;;;;;11.32;85.17;98414.09;6259185;28;20225;-45
2022/06/18 03:50:43;;;;;;;2.37;2.10;;;;;;;11.32;85.16;98404.38;6263278;28;20628;-44
2022/06/18 03:53:46;;;;;;;2.67;2.20;;;;;;;11.37;85.29;98410.19;6262935;28;20884;-44
2022/06/18 03:56:48;;;;;;;2.70;2.20;;;;;;;11.43;84.93;98409.75;6263554;28;20233;-44
2022/06/18 03:59:51;;;;;;;3.80;2.10;;;;;;;11.50;84.92;98412.78;6262410;28;20822;-45
2022/06/18 04:02:53;;;;;;;2.90;1.93;;;;;;;11.63;84.59;98412.72;6263808;28;20712;-44
2022/06/18 04:05:56;;;;;;;2.23;2.03;;;;;;;11.73;84.17;98405.81;6263436;28;20596;-44
2022/06/18 04:08:58;;;;;;;3.83;2.10;;;;;;;11.86;84.15;98408.44;6281422;28;20236;-45
2022/06/18 04:12:02;;;;;;;2.10;1.90;;;;;;;11.98;83.82;98405.72;6262110;28;20249;-44
2022/06/18 04:15:18;;;;;;;2.63;2.10;;;;;;;12.14;83.53;98405.44;6262039;28;20665;-45
2022/06/18 04:18:43;;;;;;;2.23;2.03;;;;;;;12.27;83.36;98406.19;6263237;28;20600;-44
2022/06/18 04:21:48;;;;;;;4.60;2.40;;;;;;;12.50;83.61;98407.94;6267200;28;20227;-44
2022/06/18 04:24:51;;;;;;;3.43;2.20;;;;;;;12.73;82.81;98397.38;6238098;28;20306;-45
2022/06/18 04:27:57;;;;;;;3.33;2.13;;;;;;;12.94;82.72;98396.56;6247104;28;20265;-44
2022/06/18 04:31:04;;;;;;;1.90;1.80;;;;;;;13.15;81.78;98395.84;6280416;28;20693;-44
2022/06/18 04:34:09;;;;;;;2.53;2.33;;;;;;;13.27;81.42;98406.34;6261713;28;20234;-44
2022/06/18 04:37:31;;;;;;;2.90;2.10;;;;;;;13.39;81.35;98406.28;6279765;28;20372;-44
2022/06/18 04:40:53;;;;;;;2.13;2.03;;;;;;;13.52;80.84;98399.03;6263191;28;20640;-45
2022/06/18 04:44:11;;;;;;;2.27;2.07;;;;;;;13.66;80.41;98401.44;6262130;28;20257;-45
2022/06/18 04:47:15;;;;;;;2.93;2.10;;;;;;;13.80;80.31;98400.28;6280140;28;20282;-44
2022/06/18 04:50:22;;;;;;;2.17;1.93;;;;;;;13.87;80.36;98406.81;6262062;28;20234;-44
2022/06/18 04:53:24;;;;;;;3.07;2.00;;;;;;;13.93;79.72;98396.50;6262133;28;20257;-44
2022/06/18 04:56:32;;;;;;;2.00;1.80;;;;;;;14.12;79.90;98402.94;6263749;28;20598;-45
2022/06/18 04:59:35;;;;;;;2.47;1.80;;;;;;;14.30;78.91;98409.38;6279154;28;20245;-44
2022/06/18 05:02:38;;;;;;;2.07;1.87;;;;;;;14.35;78.92;98412.50;6249833;28;20246;-45
2022/06/18 05:06:09;;;;;;;2.13;1.93;;;;;;;14.39;79.12;98417.44;6221440;28;20605;-45
2022/06/18 05:09:32;;;;;;;2.17;1.93;;;;;;;14.53;78.86;98408.31;6266391;28;20242;-44
2022/06/18 05:12:54;;;;;;;2.40;1.97;;;;;;;14.72;78.46;98418.22;6277867;28;20556;-44
2022/06/18 05:16:18;;;;;;;2.10;1.90;;;;;;;14.83;78.59;98418.16;6261672;28;20349;-45
2022/06/18 05:19:26;;;;;;;1.70;1.60;;;;;;;15.01;78.16;98416.56;6261256;28;20236;-47
2022/06/18 05:22:32;;;;;;;1.70;1.60;;;;;;;15.21;78.00;98416.63;6265045;28;20769;-44
2022/06/18 05:25:39;;;;;;;2.83;1.80;;;;;;;15.33;78.02;98413.75;6280440;28;20323;-45
2022/06/18 05:28:42;;;;;;;2.40;1.90;;;;;;;15.37;77.93;98417.00;6261272;28;20287;-44
2022/06/18 05:31:44;;;;;;;2.20;2.00;;;;;;;15.48;77.88;98415.03;6279233;28;20242;-45
2022/06/18 05:34:48;;;;;;;2.00;1.77;;;;;;;15.63;77.89;98414.72;6252154;28;20324;-45
2022/06/18 05:37:51;;;;;;;2.30;1.60;;;;;;;15.78;77.58;98421.31;6261059;28;20317;-45
2022/06/18 05:40:53;;;;;;;3.27;2.00;;;;;;;15.87;77.52;98423.16;6261436;28;20238;-44
2022/06/18 05:43:56;;;;;;;2.37;1.67;;;;;;;16.00;77.31;98415.72;6260097;28;20218;-45
2022/06/18 05:46:58;;;;;;;2.13;1.80;;;;;;;16.23;76.96;98418.97;6262008;28;20230;-45
2022/06/18 05:50:02;;;;;;;3.20;2.00;;;;;;;16.45;76.25;98408.03;6278944;28;20235;-48
2022/06/18 05:53:08;;;;;;;2.23;1.77;;;;;;;16.60;75.63;98398.59;6261575;28;20401;-45
2022/06/18 05:56:14;;;;;;;1.87;1.77;;;;;;;16.72;75.20;98406.47;6279711;28;20230;-45
2022/06/18 05:59:37;;;;;;;2.87;1.73;;;;;;;16.83;75.08;98401.81;6283450;28;20250;-45
2022/06/18 06:02:41;;;;;;;1.97;1.63;;;;;;;17.05;74.99;98411.28;6260633;28;20762;-45
2022/06/18 06:05:44;;;;;;;1.80;1.57;;;;;;;17.33;73.98;98406.81;6259891;28;20705;-45
2022/06/18 06:08:47;;;;;;;1.83;1.70;;;;;;;17.55;73.28;98403.75;6260421;28;20253;-45
2022/06/18 06:11:50;;;;;;;1.27;1.17;;;;;;;17.77;72.57;98404.38;6259131;28;20668;-45
2022/06/18 06:14:52;;;;;;;1.70;1.60;;;;;;;18.00;71.83;98406.44;6248884;28;20638;-45
2022/06/18 06:17:55;;;;;;;1.40;1.30;;;;;;;18.26;71.34;98397.66;6261343;28;20292;-45
2022/06/18 06:21:02;;;;;;;2.43;1.63;;;;;;;18.44;70.60;98398.47;6275455;28;20307;-45
2022/06/18 06:24:04;;;;;;;1.30;1.20;;;;;;;18.65;70.04;98398.16;6278449;28;20268;-46
2022/06/18 06:27:08;;;;;;;1.60;1.43;;;;;;;18.77;69.45;98399.56;6262988;28;20215;-46
2022/06/18 06:30:16;;;;;;;2.20;1.37;;;;;;;19.00;68.83;98402.56;6277291;28;20254;-45
2022/06/18 06:33:19;;;;;;;2.27;1.23;;;;;;;19.22;67.68;98393.16;6260294;28;20260;-45
2022/06/18 06:36:21;;;;;;;1.50;1.40;;;;;;;19.31;67.68;98398.38;6271771;28;20317;-45
2022/06/18 06:39:23;;;;;;;2.13;1.30;;;;;;;19.56;66.84;98401.19;6278440;28;20256;-45
2022/06/18 06:42:25;;;;;;;1.63;1.40;;;;;;;19.75;66.26;98407.13;6278795;28;20244;-45
2022/06/18 06:45:30;;;;;;;1.30;1.20;;;;;;;20.06;65.41;98409.19;6277923;28;20430;-45
2022/06/18 06:48:32;;;;;;;2.53;1.37;;;;;;;20.24;64.02;98409.88;6277222;28;20233;-46
2022/06/18 06:51:37;;;;;;;1.30;1.20;;;;;;;20.35;63.51;98404.22;6278865;28;20238;-45
2022/06/18 06:54:40;;;;;;;1.10;1.00;;;;;;;20.57;63.10;98408.91;6277914;28;20605;-45
2022/06/18 06:57:44;;;;;;;2.43;1.20;;;;;;;20.84;61.76;98406.88;6277152;28;20238;-47
2022/06/18 07:00:56;;;;;;;2.30;1.20;;;;;;;21.11;61.36;98403.81;6277750;28;20238;-45
2022/06/18 07:03:58;;;;;;;1.30;1.20;;;;;;;21.36;60.54;98399.25;6277375;28;20263;-46
2022/06/18 07:07:01;;;;;;;1.63;1.40;;;;;;;21.53;59.85;98403.53;6277010;28;20705;-45
2022/06/18 07:10:03;;;;;;;1.20;1.10;;;;;;;21.66;59.10;98397.59;6277785;28;20240;-46
2022/06/18 07:13:06;;;;;;;1.27;1.17;;;;;;;21.79;59.04;98395.16;6276689;28;20230;-45
2022/06/18 07:16:10;;;;;;;2.73;1.47;;;;;;;21.93;58.97;98385.50;6277259;28;20223;-49
2022/06/18 07:19:12;;;;;;;1.40;1.30;;;;;;;22.05;58.39;98392.19;6277960;28;20321;-47
2022/06/18 07:22:15;;;;;;;1.90;1.20;;;;;;;22.22;58.42;98382.97;6260661;28;20227;-45
2022/06/18 07:25:17;;;;;;;1.77;1.40;;;;;;;22.38;57.55;98392.75;6278717;28;20257;-45
2022/06/18 07:28:20;;;;;;;1.00;1.00;;;;;;;22.58;55.05;98395.78;6282023;28;20246;-45
2022/06/18 07:31:29;;;;;;;1.10;1.00;;;;;;;23.34;53.21;98382.09;6281828;28;20325;-45
2022/06/18 07:34:32;;;;;;;1.03;1.00;;;;;;;23.70;51.42;98379.47;6273426;28;20258;-46
2022/06/18 07:37:34;;;;;;;1.30;1.20;;;;;;;24.23;50.11;98374.69;6268396;28;20709;-46
2022/06/18 07:40:54;;;;;;;1.33;1.10;;;;;;;24.59;46.12;98369.19;6281147;28;20218;-46
2022/06/18 07:43:58;;;;;;;0.90;0.90;;;;;;;24.87;48.05;98370.00;6281298;28;20329;-46
2022/06/18 07:47:03;;;;;;;1.63;1.17;;;;;;;25.10;44.52;98371.66;6282458;28;20364;-47
2022/06/18 07:50:06;;;;;;;2.10;1.20;;;;;;;25.27;45.02;98364.88;6281286;28;20234;-47
2022/06/18 07:53:18;;;;;;;1.73;1.43;;;;;;;25.49;43.19;98358.34;6281456;28;20262;-46
2022/06/18 07:56:21;;;;;;;1.20;1.10;;;;;;;26.00;43.39;98349.81;6281506;28;20331;-46
2022/06/18 07:59:23;;;;;;;1.20;1.15;;;;;;;26.39;41.54;98352.63;6281329;28;20321;-46
2022/06/18 08:02:25;;;;;;;1.17;1.15;;;;;;;26.55;42.99;98356.81;6281195;28;20589;-46
2022/06/18 08:05:28;;;;;;;1.00;0.90;;;;;;;26.58;41.05;98348.25;6280920;28;20230;-48
2022/06/18 08:08:30;;;;;;;1.50;1.25;;;;;;;26.82;41.80;98344.91;6281205;28;20252;-46
2022/06/18 08:11:38;;;;;;;1.92;1.35;;;;;;;26.53;41.87;98344.50;6280614;28;20234;-46
2022/06/18 08:14:40;;;;;;;1.35;1.10;;;;;;;26.91;42.01;98348.22;6280769;28;20684;-46
2022/06/18 08:17:42;;;;;;;2.05;1.13;;;;;;;27.13;40.77;98344.25;6280413;28;20238;-48
2022/06/18 08:20:45;;;;;;;4.50;1.27;;;;;;;27.38;39.50;98338.94;6276698;28;20245;-49
2022/06/18 08:23:50;;;;;;;1.55;1.20;;;;;;;27.50;39.31;98336.41;6278677;28;20248;-47
2022/06/18 08:26:53;;;;;;;0.93;0.93;;;;;;;27.66;39.61;98340.53;6280227;28;20372;-47
2022/06/18 08:29:56;;;;;;;1.40;1.08;;;;;;;27.61;38.63;98341.19;6281311;28;20320;-46
2022/06/18 08:32:58;;;;;;;2.17;1.00;;;;;;;27.68;37.37;98333.84;6279592;28;20260;-46
2022/06/18 08:36:03;;;;;;;3.15;1.10;;;;;;;27.87;37.45;98335.63;6274580;28;20230;-47
2022/06/18 08:39:05;;;;;;;1.10;1.00;;;;;;;28.29;38.45;98327.88;6280279;28;20218;-48
2022/06/18 08:42:32;;;;;;;1.10;0.95;;;;;;;28.64;36.35;98320.91;6279617;28;20291;-48
2022/06/18 08:45:44;;;;;;;1.02;0.90;;;;;;;28.82;37.04;98316.59;6280810;28;20490;-47
2022/06/18 08:49:07;;;;;;;2.45;1.20;;;;;;;28.98;35.51;98313.25;6279475;28;20235;-44
2022/06/18 08:52:18;;;;;;;0.85;0.85;;;;;;;29.09;35.73;98314.41;6279723;28;20610;-43
2022/06/18 08:55:41;;;;;;;1.15;0.98;;;;;;;29.21;36.65;98313.44;6280160;28;20250;-46
2022/06/18 08:59:04;;;;;;;1.45;1.10;;;;;;;29.28;34.86;98308.75;6279981;28;20343;-47
2022/06/18 09:02:55;;;;;;;1.17;1.08;;;;;;;29.57;34.20;98307.16;6279180;28;20702;-45
2022/06/18 09:06:24;;;;;;;1.40;1.30;;;;;;;29.50;35.72;98306.41;6256075;28;20229;-49
2022/06/18 09:09:45;;;;;;;1.70;1.00;;;;;;;29.82;35.49;98300.78;6278865;28;20237;-49
2022/06/18 09:13:10;;;;;;;2.45;1.20;;;;;;;30.25;36.12;98295.09;6278461;28;20245;-46
2022/06/18 09:16:18;;;;;;;2.13;1.25;;;;;;;30.62;35.52;98296.63;6262593;28;20265;-46
2022/06/18 09:19:23;;;;;;;1.58;1.10;;;;;;;30.76;36.01;98289.00;6282108;28;20325;-47
2022/06/18 09:22:27;;;;;;;1.45;1.00;;;;;;;30.79;34.27;98286.66;6259967;28;20227;-47
2022/06/18 09:25:38;;;;;;;1.60;1.30;;;;;;;30.93;34.97;98279.06;6273433;28;20311;-46
2022/06/18 09:28:49;;;;;;;1.30;1.20;;;;;;;30.98;34.25;98272.88;6278820;28;20622;-46
2022/06/18 09:32:16;;;;;;;1.27;1.17;;;;;;;31.10;32.33;98263.66;6278924;28;20227;-46
2022/06/18 09:35:24;;;;;;;1.50;1.08;;;;;;;31.24;35.54;98266.13;6264041;28;20235;-46
2022/06/18 09:38:32;;;;;;;3.38;1.02;;;;;;;31.42;34.01;98266.78;6267614;28;20226;-47
2022/06/18 09:41:48;;;;;;;1.00;1.00;;;;;;;31.64;32.21;98264.25;6278343;28;20348;-46
2022/06/18 09:45:09;;;;;;;1.15;1.05;;;;;;;31.97;30.86;98255.25;6278958;28;20725;-44
2022/06/18 09:48:13;;;;;;;1.48;1.38;;;;;;;32.18;31.62;98262.78;6276549;28;20313;-45
2022/06/18 09:51:36;;;;;;;1.23;1.10;;;;;;;32.26;32.18;98254.16;6278183;28;20214;-44
2022/06/18 09:54:51;;;;;;;1.38;1.23;;;;;;;32.13;30.05;98251.75;6281873;28;20274;-43
2022/06/18 09:57:58;;;;;;;1.10;1.08;;;;;;;32.36;31.27;98255.41;6279291;28;20686;-44
2022/06/18 10:01:01;;;;;;;1.15;1.02;;;;;;;32.82;28.99;98246.84;6277766;28;20283;-43
2022/06/18 10:07:29;;;;;;;1.77;1.50;;;;;;;32.81;30.80;98253.41;6278449;28;20262;-44
2022/06/18 10:10:34;;;;;;;1.05;1.00;;;;;;;33.33;31.25;98248.38;6277511;28;20372;-44
2022/06/18 10:13:44;;;;;;;1.70;1.15;;;;;;;33.37;31.57;98243.19;6278073;28;20238;-45
2022/06/18 10:17:12;;;;;;;1.30;1.20;;;;;;;33.41;31.75;98243.53;6277724;28;20630;-45
2022/06/18 10:20:45;;;;;;;1.67;1.20;;;;;;;33.57;30.86;98232.47;6276824;28;20231;-44
2022/06/18 10:24:10;;;;;;;1.55;1.23;;;;;;;33.63;31.22;98234.19;6269542;28;20227;-45
2022/06/18 10:27:30;;;;;;;4.70;1.67;;;;;;;33.23;26.64;98225.53;6260955;28;20237;-46
2022/06/18 10:30:55;;;;;;;1.30;1.20;;;;;;;33.54;31.21;98227.50;6278636;28;20231;-46
2022/06/18 10:34:32;;;;;;;2.03;1.40;;;;;;;33.93;29.14;98220.00;6275079;28;20223;-45
2022/06/18 10:37:50;;;;;;;1.40;1.30;;;;;;;34.50;29.75;98221.28;6269930;28;20320;-46
2022/06/18 10:41:17;;;;;;;1.58;1.48;;;;;;;34.77;28.58;98213.81;6277697;28;20380;-45
2022/06/18 10:44:50;;;;;;;2.33;1.70;;;;;;;35.09;24.68;98202.72;6259440;28;20302;-45
2022/06/18 10:47:54;;;;;;;1.50;1.40;;;;;;;35.06;27.20;98206.81;6277412;28;20288;-48
2022/06/18 10:50:58;;;;;;;1.50;1.40;;;;;;;34.94;28.24;98197.97;6278159;28;20380;-46
2022/06/18 10:54:01;;;;;;;1.90;1.80;;;;;;;34.93;27.35;98188.13;6277142;28;20713;-45
2022/06/18 10:57:04;;;;;;;2.83;1.63;;;;;;;35.10;26.55;98180.50;6276680;28;20768;-46
2022/06/18 11:00:25;;;;;;;1.25;1.25;;;;;;;35.26;26.62;98186.06;6282744;28;20214;-44
2022/06/18 11:03:30;;;;;;;1.70;1.58;;;;;;;35.02;25.42;98185.69;6282751;28;20229;-45
2022/06/18 11:06:33;;;;;;;2.67;1.60;;;;;;;35.29;26.96;98180.88;6281893;28;20219;-46
2022/06/18 11:09:57;;;;;;;2.40;1.60;;;;;;;34.69;26.01;98171.22;6281996;28;20364;-45
2022/06/18 11:13:02;;;;;;;1.70;1.42;;;;;;;34.88;26.04;98168.88;6282268;28;20383;-45
2022/06/18 11:16:15;;;;;;;1.50;1.40;;;;;;;35.55;25.19;98161.69;6264422;28;20601;-50
2022/06/18 11:19:26;;;;;;;1.90;1.20;;;;;;;36.27;26.11;98161.47;6281955;28;20241;-45
2022/06/18 11:22:29;;;;;;;1.80;1.30;;;;;;;36.32;27.83;98153.25;6279669;28;20237;-45
2022/06/18 11:25:40;;;;;;;2.78;1.50;;;;;;;36.66;28.37;98158.09;6282113;28;20387;-45
2022/06/18 11:28:50;;;;;;;1.50;1.40;;;;;;;36.87;25.96;98146.75;6281298;28;20318;-45
2022/06/18 11:31:57;;;;;;;1.45;1.30;;;;;;;37.11;25.59;98140.59;6282005;28;20695;-46
2022/06/18 11:35:23;;;;;;;1.75;1.20;;;;;;;37.01;27.61;98147.00;6276748;28;20329;-46
2022/06/18 11:38:27;;;;;;;1.33;1.23;;;;;;;36.99;26.22;98140.13;6281910;28;20332;-45
2022/06/18 11:41:35;;;;;;;2.45;1.40;;;;;;;37.00;24.88;98137.09;6282222;28;20218;-47
2022/06/18 11:44:47;;;;;;;1.17;1.08;;;;;;;36.97;25.32;98135.72;6284359;28;20230;-46
2022/06/18 11:48:22;;;;;;;2.22;1.25;;;;;;;36.87;23.46;98132.19;6280968;28;20226;-46
2022/06/18 11:51:45;;;;;;;1.98;1.10;;;;;;;36.93;23.16;98123.63;6239178;28;20296;-45
2022/06/18 11:55:03;;;;;;;1.30;1.17;;;;;;;37.10;22.31;98119.69;6281422;28;20238;-44
2022/06/18 11:58:21;;;;;;;1.42;1.30;;;;;;;37.15;23.10;98115.00;6282224;28;20247;-50
2022/06/18 12:01:57;;;;;;;2.35;1.10;;;;;;;37.40;22.84;98103.00;6281104;28;20230;-44
2022/06/18 12:05:10;;;;;;;1.45;1.20;;;;;;;36.83;21.08;98101.66;6281463;28;20234;-45
2022/06/18 12:08:18;;;;;;;2.20;1.20;;;;;;;36.66;22.78;98098.41;6282606;28;20222;-47
2022/06/18 12:11:44;;;;;;;2.25;1.15;;;;;;;37.16;23.93;98094.63;6280225;28;20280;-45
2022/06/18 12:14:58;;;;;;;1.42;1.05;;;;;;;37.56;24.11;98096.25;6280782;28;20230;-46
2022/06/18 12:18:28;;;;;;;1.15;1.10;;;;;;;37.56;22.04;98088.00;6280709;28;20712;-45
2022/06/18 12:22:17;;;;;;;1.00;1.00;;;;;;;37.55;22.62;98071.75;6268784;28;20365;-46
2022/06/18 12:25:41;;;;;;;1.40;1.30;;;;;;;36.51;21.41;98079.22;6180582;28;20291;-46
2022/06/18 12:29:10;;;;;;;1.90;1.30;;;;;;;36.86;22.34;98075.50;6179878;28;20678;-50
2022/06/18 12:32:30;;;;;;;1.58;1.33;;;;;;;37.17;22.43;98074.25;6180935;28;20332;-45
2022/06/18 12:35:45;;;;;;;1.27;1.17;;;;;;;37.76;22.77;98075.19;6179493;28;20246;-46
2022/06/18 12:39:00;;;;;;;1.38;1.27;;;;;;;37.81;23.89;98077.91;6183527;28;20307;-46
2022/06/18 12:42:13;;;;;;;1.17;1.10;;;;;;;37.94;24.37;98071.72;6169929;28;20752;-47
2022/06/18 12:45:46;;;;;;;1.48;1.30;;;;;;;37.86;23.77;98061.31;6167071;28;20230;-45
2022/06/18 12:49:07;;;;;;;1.48;1.38;;;;;;;38.05;24.30;98056.72;6177364;28;20319;-45
2022/06/18 12:52:33;;;;;;;4.00;1.30;;;;;;;38.14;24.33;98057.75;6181466;28;20720;-45
2022/06/18 12:56:14;;;;;;;1.77;1.35;;;;;;;38.43;20.84;98052.19;6230710;28;20235;-45
2022/06/18 12:59:46;;;;;;;1.00;1.00;;;;;;;38.62;19.04;98046.75;6279145;28;20650;-46
2022/06/18 13:02:51;;;;;;;1.88;1.38;;;;;;;38.47;20.02;98047.72;6280458;28;20237;-46
2022/06/18 13:06:33;;;;;;;1.13;1.02;;;;;;;38.35;21.47;98042.63;6279437;28;20284;-45
2022/06/18 13:10:01;;;;;;;1.90;1.30;;;;;;;38.17;20.51;98048.06;6277114;28;20300;-45
2022/06/18 13:13:03;;;;;;;1.48;1.10;;;;;;;38.13;20.37;98041.53;6278546;28;20624;-47
2022/06/18 13:16:31;;;;;;;1.20;0.98;;;;;;;38.15;23.13;98039.28;6280402;28;20230;-46
2022/06/18 13:19:44;;;;;;;2.30;1.30;;;;;;;38.04;24.33;98035.78;6279280;28;20303;-48
2022/06/18 13:22:47;;;;;;;1.75;1.08;;;;;;;38.30;22.10;98026.16;6273700;28;20234;-47
2022/06/18 13:29:26;;;;;;;1.00;0.90;;;;;;;38.44;21.18;98012.44;6279014;28;20293;-48
2022/06/18 13:32:32;;;;;;;1.73;1.45;;;;;;;38.31;19.89;98005.72;6279939;28;20232;-49
2022/06/18 13:35:41;;;;;;;2.30;1.20;;;;;;;38.44;19.07;98006.91;6270721;28;20234;-49
2022/06/18 13:38:53;;;;;;;1.75;1.20;;;;;;;38.83;18.73;98008.66;6279938;28;20219;-47
2022/06/18 13:42:07;;;;;;;1.70;1.10;;;;;;;39.18;19.67;98005.38;6278772;28;20226;-49
2022/06/18 13:45:21;;;;;;;1.40;1.10;;;;;;;39.45;19.68;97993.63;6278044;28;20214;-46
2022/06/18 13:48:52;;;;;;;1.80;1.13;;;;;;;40.01;19.92;98000.94;6278374;28;20317;-47
2022/06/18 13:52:01;;;;;;;1.10;1.00;;;;;;;40.51;19.10;97988.03;6278604;28;20237;-47
2022/06/18 13:55:04;;;;;;;1.58;1.13;;;;;;;40.95;18.76;97987.31;6278712;28;20329;-47
2022/06/18 13:58:23;;;;;;;1.30;1.20;;;;;;;40.57;21.13;97981.25;6277644;28;20597;-45
2022/06/18 14:01:27;;;;;;;1.27;1.15;;;;;;;40.57;20.54;97978.47;6260794;28;20241;-47
2022/06/18 14:04:35;;;;;;;1.88;1.02;;;;;;;41.74;19.65;97970.16;6278302;28;20239;-50
2022/06/18 14:07:44;;;;;;;3.70;1.23;;;;;;;43.38;17.12;97965.78;6278052;28;20264;-47
2022/06/18 14:10:47;;;;;;;1.45;1.00;;;;;;;44.84;15.31;97967.97;6277448;28;20230;-49
2022/06/18 14:13:52;;;;;;;0.90;0.90;;;;;;;45.71;12.05;97961.59;6277114;28;20249;-51
2022/06/18 14:17:03;;;;;;;2.20;0.93;;;;;;;46.31;11.37;97951.69;6278916;28;20236;-49
2022/06/18 14:20:17;;;;;;;2.33;0.93;;;;;;;46.80;12.65;97952.44;6277748;28;20230;-47
2022/06/18 14:23:36;;;;;;;1.20;1.10;;;;;;;46.83;13.94;97954.50;6241064;28;20237;-46
2022/06/18 14:26:49;;;;;;;1.13;1.02;;;;;;;47.02;14.31;97943.53;6278663;28;20245;-49
2022/06/18 14:29:52;;;;;;;1.10;1.02;;;;;;;47.54;15.10;97945.38;6277459;28;20315;-47
2022/06/18 14:33:00;;;;;;;1.15;1.00;;;;;;;47.81;12.44;97944.56;6259023;28;20230;-51
2022/06/18 14:36:16;;;;;;;0.90;0.90;;;;;;;48.11;9.79;97939.34;6257400;28;20316;-48
2022/06/18 14:39:26;;;;;;;1.27;0.95;;;;;;;48.65;11.56;97930.16;6276131;28;20214;-48
2022/06/18 14:42:56;;;;;;;1.23;1.13;;;;;;;48.98;10.64;97935.31;6276912;28;20243;-46
2022/06/18 14:46:20;;;;;;;1.10;1.10;;;;;;;48.91;10.51;97935.19;6278043;28;20325;-48
2022/06/18 14:49:41;;;;;;;1.83;1.30;;;;;;;48.65;11.45;97930.97;6278194;28;20376;-49
2022/06/18 14:53:17;;;;;;;1.77;0.90;;;;;;;48.42;13.12;97930.84;6277355;28;20710;-48
2022/06/18 14:56:38;;;;;;;1.80;1.33;;;;;;;47.76;12.25;97928.03;6278719;28;20272;-47
2022/06/18 15:00:05;;;;;;;4.47;1.35;;;;;;;48.29;13.27;97909.75;6277966;28;20325;-48
2022/06/18 15:03:36;;;;;;;1.40;1.15;;;;;;;48.09;14.39;97913.66;6276794;28;20237;-47
2022/06/18 15:06:39;;;;;;;1.33;1.05;;;;;;;47.59;14.40;97909.56;6261524;28;20315;-46
2022/06/18 15:09:47;;;;;;;2.15;1.17;;;;;;;47.40;13.45;97903.06;6277220;28;20356;-46
2022/06/18 15:12:51;;;;;;;2.30;1.27;;;;;;;48.05;14.89;97907.13;6276165;28;20372;-46
2022/06/18 15:25:43;;;;;;;1.88;1.25;;;;;;;47.15;15.64;97899.56;6277306;28;20289;-45